Terminal Aerodrome Forecast
Issued by NWS Cheyenne, WY

Home | Current Version | Previous Version | Text Only | Print | Product List | Glossary On
Versions: 1 2 3 4 5 6 7 8 9 10 11 12 13 14 15 16 17 18 19 20 21 22 23 24 25 26 27 28 29 30 31 32
000
FTUS45 KCYS 222321
TAFCYS
TAF
KCYS 222321Z 2300/2324 01011G20KT P6SM -SN SCT030 OVC050
      TEMPO 2300/2303 1SM -SN BR SCT012 OVC025
     FM230400 06007KT P6SM VCSH SCT015 OVC040
     FM230800 07012KT 2SM -SN BR OVC008=

USA.gov is the U.S. government's official web portal to all federal, state and local government web resources and services.